Flight Track Log - Related Links

Times and Time Zones

All times are in EDT time to prevent confusion due to time zone crossing. See the N587DG flight status page for this flight to view local times or setup timezone preferences in your user account.

Time Position Orientation Groundspeed Altitude Reporting Facility
EDT Latitude Longitude Course Direction KTS MPH feet Rate Location/Type
Mon 08:05:09 AM 34.3494 -83.8903 310° West 166 191 2,800  Level Atlanta Center
Mon 08:06:09 AM 34.3722 -83.9231 310° West 166 191 3,900 1,000 Climbing Atlanta Center
Mon 08:07:09 AM 34.3994 -83.9583 313° West 149 171 4,800 900 Climbing Atlanta Center
Mon 08:08:09 AM 34.4267 -83.9961 311° West 144 166 5,700 800 Climbing Atlanta Center
Mon 08:09:09 AM 34.4539 -84.0311 313° West 139 160 6,400 700 Climbing Atlanta Center
Mon 08:10:09 AM 34.4767 -84.0664 308° West 139 160 7,100 650 Climbing Atlanta Center
Mon 08:11:09 AM 34.5039 -84.0992 315° West 139 160 7,700 450 Climbing Atlanta Center
Mon 08:12:09 AM 34.5267 -84.1294 312° West 133 153 8,000 150 Climbing Atlanta Center
Mon 08:13:09 AM 34.5539 -84.1675 311° West 141 162 8,000  Level Atlanta Center
Mon 08:14:09 AM 34.5831 -84.2053 313° West 146 168 8,000  Level Atlanta Center
Mon 08:15:09 AM 34.6100 -84.2458 309° West 152 175 8,000  Level Atlanta Center
Mon 08:16:09 AM 34.6414 -84.2836 315° West 152 175 8,000  Level Atlanta Center
Mon 08:17:09 AM 34.6683 -84.3217 311° West 158 182 8,000  Level Atlanta Center
Mon 08:18:09 AM 34.6956 -84.3597 311° West 158 182 8,000  Level Atlanta Center
Mon 08:19:09 AM 34.7244 -84.3978 313° West 158 182 8,000  Level Atlanta Center
Mon 08:20:09 AM 34.7536 -84.4483 305° West 158 182 8,000  Level Atlanta Center
Mon 08:21:09 AM 34.7828 -84.4764 322° Northwest 152 175 8,000  Level Atlanta Center
Mon 08:22:09 AM 34.8097 -84.5169 309° West 152 175 8,000  Level Atlanta Center
Mon 08:23:09 AM 34.8389 -84.5575 311° West 158 182 8,000  Level Atlanta Center
Mon 08:24:09 AM 34.8636 -84.5983 306° West 158 182 8,000  Level Atlanta Center
Mon 08:25:09 AM 34.8906 -84.6339 313° West 158 182 8,000  Level Atlanta Center
Mon 08:26:09 AM 34.9197 -84.6719 313° West 158 182 8,000  Level Atlanta Center
Mon 08:27:09 AM 34.9467 -84.7103 311° West 158 182 8,000  Level Atlanta Center
Mon 08:29:00 AM 34.9958 -84.7891 307° West  Level FlightAware Approximate
Mon 08:36:00 AM 35.1815 -85.0884 307° West  Level FlightAware Approximate
Mon 08:37:00 AM 35.2079 -85.1312 307° West  Level FlightAware Approximate
Mon 08:38:00 AM 35.2344 -85.1741 307° West  Level FlightAware Approximate
Mon 08:39:00 AM 35.2608 -85.2170 307° West  Level FlightAware Approximate
Mon 08:40:00 AM 35.2872 -85.2600 307° West  Level FlightAware Approximate
Mon 08:40:51 AM 35.3272 -85.2392 309° West 156 180 8,000  Level Memphis Center
Mon 08:41:00 AM 35.3136 -85.3029 307° West  Level FlightAware Approximate
Mon 08:41:51 AM 35.3539 -85.2783 310° West 161 185 8,000  Level Memphis Center
Mon 08:42:00 AM 35.3400 -85.3459 307° West  Level FlightAware Approximate
Mon 08:42:51 AM 35.3825 -85.3175 312° West 156 180 8,000  Level Memphis Center
Mon 08:43:00 AM 35.3664 -85.3890 307° West  Level FlightAware Approximate
Mon 08:43:51 AM 35.4114 -85.3564 312° West 156 180 8,000  Level Memphis Center
Mon 08:44:00 AM 35.3934 -85.4318 309° West  Level FlightAware Approximate
Mon 08:44:51 AM 35.4381 -85.3981 308° West 156 180 8,000  Level Memphis Center
Mon 08:45:00 AM 35.4212 -85.4734 309° West  Level FlightAware Approximate
Mon 08:45:51 AM 35.4667 -85.4372 312° West 156 180 8,000  Level Memphis Center
Mon 08:46:00 AM 35.4490 -85.5151 309° West  Level FlightAware Approximate
Mon 08:46:51 AM 35.4933 -85.4789 308° West 156 180 8,000  Level Memphis Center
Mon 08:47:51 AM 35.5242 -85.5181 314° West 156 180 8,000  Level Memphis Center
Mon 08:48:51 AM 35.5508 -85.5597 308° West 156 180 8,000  Level Memphis Center
Mon 08:49:51 AM 35.5814 -85.5989 314° West 156 180 8,000  Level Memphis Center
Mon 08:50:51 AM 35.6081 -85.6408 308° West 156 180 8,000  Level Memphis Center
Mon 08:51:51 AM 35.6367 -85.6800 312° West 156 180 8,000  Level Memphis Center
Mon 08:52:51 AM 35.6653 -85.7217 310° West 156 180 8,000  Level Memphis Center
Mon 08:53:51 AM 35.6919 -85.7636 308° West 156 180 8,000  Level Memphis Center
Mon 08:54:51 AM 35.7225 -85.8028 314° West 156 180 8,000  Level Memphis Center
Mon 08:55:51 AM 35.7492 -85.8450 308° West 156 180 8,000  Level Memphis Center
Mon 08:56:51 AM 35.7861 -85.8889 316° Northwest 156 180 8,000  Level Memphis Center
Mon 08:57:51 AM 35.8147 -85.9308 310° West 161 185 8,000  Level Memphis Center
Mon 08:58:51 AM 35.8411 -85.9706 309° West 161 185 8,000  Level Memphis Center
Mon 08:59:51 AM 35.8697 -86.0100 312° West 161 185 8,000  Level Memphis Center
Mon 09:00:51 AM 35.8981 -86.0494 312° West 161 185 8,000  Level Memphis Center
Mon 09:01:51 AM 35.9267 -86.0917 310° West 161 185 8,000  Level Memphis Center
Mon 09:02:51 AM 35.9531 -86.1311 310° West 161 185 8,000  Level Memphis Center
Mon 09:03:51 AM 35.9817 -86.1708 312° West 161 185 8,000  Level Memphis Center
Mon 09:04:51 AM 36.0058 -86.2106 307° West 161 185 8,000  Level Memphis Center
Mon 09:05:51 AM 36.0322 -86.2503 309° West 161 185 8,000  Level Memphis Center
Mon 09:06:51 AM 36.0606 -86.2900 311° West 156 180 8,000  Level Memphis Center
Mon 09:07:51 AM 36.0889 -86.3297 311° West 156 180 8,000  Level Memphis Center
Mon 09:08:51 AM 36.1175 -86.3719 310° West 156 180 8,000  Level Memphis Center
Mon 09:10:52 AM 36.1500 -86.4833 290° West 157 181 8,000  Level Nashville TRACON
Mon 09:11:46 AM 36.1500 -86.5167 270° West 157 181 8,000  Level Nashville TRACON
Mon 09:12:58 AM 36.1667 -86.5833 287° West 158 182 8,000  Level Nashville TRACON
Mon 09:14:04 AM 36.2000 -86.6333 310° West 155 178 8,000  Level Nashville TRACON
Mon 09:15:04 AM 36.2333 -86.6667 321° Northwest 156 180 8,000  Level Nashville TRACON
Mon 09:15:46 AM 36.2500 -86.7000 302° West 156 180 8,000  Level Nashville TRACON
Mon 09:16:47 AM 36.2833 -86.7333 321° Northwest 156 180 8,000  Level Nashville TRACON
Mon 09:17:27 AM 36.2942 -86.7675 291° West 156 180 8,000  Level Memphis Center
Mon 09:18:28 AM 36.3247 -86.8125 310° West 156 180 8,000  Level Memphis Center
Mon 09:19:35 AM 36.3572 -86.8550 314° West 156 180 8,000  Level Memphis Center
Mon 09:20:35 AM 36.3833 -86.8950 309° West 156 180 8,000  Level Memphis Center
Mon 09:21:36 AM 36.4136 -86.9350 313° West 155 178 8,000  Level Memphis Center
Mon 09:22:37 AM 36.4439 -86.9803 310° West 155 178 8,000  Level Memphis Center
Mon 09:23:37 AM 36.4722 -87.0203 311° West 156 180 8,000  Level Memphis Center
Mon 09:24:38 AM 36.5003 -87.0603 311° West 156 180 8,000  Level Memphis Center
Mon 09:25:38 AM 36.5283 -87.0981 313° West 156 180 8,000  Level Memphis Center
Mon 09:26:39 AM 36.5589 -87.1433 310° West 156 180 8,000  Level Memphis Center
Mon 09:27:40 AM 36.5869 -87.1808 313° West 157 181 8,000  Level Memphis Center
Mon 09:28:40 AM 36.6150 -87.2264 308° West 157 181 8,000  Level Memphis Center
Mon 09:29:41 AM 36.6431 -87.2642 313° West 157 181 8,000  Level Memphis Center
Mon 09:30:41 AM 36.6736 -87.3094 310° West 156 180 8,000  Level Memphis Center
Mon 09:31:42 AM 36.7017 -87.3497 311° West 157 181 8,000  Level Memphis Center
Mon 09:32:43 AM 36.7317 -87.3875 315° West 159 183 8,000  Level Memphis Center
Mon 09:33:43 AM 36.7597 -87.4331 308° West 159 183 8,000  Level Memphis Center
Mon 09:34:44 AM 36.7919 -87.4758 313° West 158 182 8,000  Level Memphis Center
Mon 09:35:44 AM 36.8161 -87.5192 305° West 159 183 8,000  Level Memphis Center
Mon 09:36:45 AM 36.8481 -87.5594 315° West 159 183 8,000  Level Memphis Center
Mon 09:37:46 AM 36.8761 -87.5975 313° West 159 183 8,000  Level Memphis Center
Mon 09:38:46 AM 36.9064 -87.6456 308° West 159 183 8,000  Level Memphis Center
Mon 09:39:53 AM 36.9364 -87.6914 309° West 161 185 8,000  Level Memphis Center
Mon 09:40:54 AM 36.9667 -87.7319 313° West 161 185 8,000  Level Memphis Center
Mon 09:41:54 AM 36.9967 -87.7750 311° West 160 184 8,000  Level Memphis Center
Mon 09:42:55 AM 37.0225 -87.8183 307° West 159 183 8,000  Level Memphis Center
Mon 09:44:02 AM 37.0547 -87.8642 311° West 161 185 8,000  Level Memphis Center
Mon 09:44:51 AM 37.0761 -87.8972 309° West 167 192 8,000  Level Memphis Center
Mon 09:45:51 AM 37.1061 -87.9381 313° West 167 192 8,000  Level Memphis Center
Mon 09:46:51 AM 37.1342 -87.9814 309° West 167 192 8,000  Level Memphis Center
Mon 09:47:51 AM 37.1619 -88.0222 310° West 167 192 8,000  Level Memphis Center
Mon 09:48:51 AM 37.1919 -88.0656 311° West 162 186 8,000  Level Memphis Center
Mon 09:49:51 AM 37.2239 -88.1089 313° West 162 186 8,000  Level Memphis Center
Mon 09:50:51 AM 37.2539 -88.1522 311° West 169 194 8,000  Level Memphis Center
Mon 09:51:51 AM 37.2839 -88.1958 311° West 164 189 8,000  Level Memphis Center
Mon 09:52:51 AM 37.3094 -88.2369 308° West 164 189 8,000  Level Memphis Center
Mon 09:53:51 AM 37.3394 -88.2803 311° West 156 180 8,000  Level Memphis Center
Mon 09:54:51 AM 37.3694 -88.3239 311° West 163 188 8,000  Level Memphis Center
Mon 09:55:51 AM 37.3950 -88.3625 310° West 163 188 8,000  Level Memphis Center
Mon 09:56:51 AM 37.4269 -88.4061 313° West 158 182 8,000  Level Memphis Center
Mon 09:57:51 AM 37.4547 -88.4472 310° West 158 182 8,000  Level Memphis Center
Mon 09:58:51 AM 37.4825 -88.4936 307° West 164 189 8,000  Level Memphis Center
Mon 09:59:51 AM 37.5122 -88.5347 312° West 155 178 8,000  Level Memphis Center
Mon 10:02:17 AM 37.5803 -88.6350 311° West 161 185 8,000  Level Kansas City Center
Mon 10:03:20 AM 37.6072 -88.6769 309° West 157 181 8,000  Level Kansas City Center
Mon 10:04:21 AM 37.6372 -88.7214 310° West 161 185 8,000  Level Kansas City Center
Mon 10:05:23 AM 37.6694 -88.7728 308° West 162 186 8,000  Level Kansas City Center
Mon 10:06:26 AM 37.6983 -88.8147 311° West 160 184 8,000  Level Kansas City Center
Mon 10:07:28 AM 37.7269 -88.8558 311° West 157 181 8,000  Level Kansas City Center
Mon 10:08:28 AM 37.7556 -88.9003 309° West 159 183 8,000  Level Kansas City Center
Mon 10:09:32 AM 37.7831 -88.9428 309° West 157 181 8,000  Level Kansas City Center
Mon 10:10:33 AM 37.8114 -88.9847 311° West 157 181 8,000  Level Kansas City Center
Mon 10:11:35 AM 37.8414 -89.0267 312° West 157 181 8,000  Level Kansas City Center
Mon 10:12:38 AM 37.8728 -89.0811 306° West 158 182 8,000  Level Kansas City Center
Mon 10:13:39 AM 37.9008 -89.1247 309° West 159 183 8,000  Level Kansas City Center
Mon 10:14:40 AM 37.9294 -89.1664 311° West 158 182 8,000  Level Kansas City Center
Mon 10:15:43 AM 37.9600 -89.2125 310° West 159 183 8,000  Level Kansas City Center
Mon 10:16:43 AM 37.9878 -89.2556 309° West 158 182 8,000  Level Kansas City Center
Mon 10:17:47 AM 38.0183 -89.3019 310° West 159 183 8,000  Level Kansas City Center
Mon 10:18:50 AM 38.0472 -89.3450 310° West 159 183 8,000 -96 Level Kansas City Center
Mon 10:19:52 AM 38.0781 -89.3919 310° West 160 184 7,800 -341 Descending Kansas City Center
Mon 10:20:53 AM 38.1064 -89.4342 310° West 165 190 7,300 -397 Descending Kansas City Center
Mon 10:21:53 AM 38.1353 -89.4786 310° West 164 189 7,000 -145 Descending Kansas City Center
Mon 10:22:57 AM 38.1614 -89.5197 309° West 150 173 7,000  Level Kansas City Center
Mon 10:23:57 AM 38.1867 -89.5592 309° West 146 168 7,000  Level Kansas City Center
Mon 10:25:01 AM 38.2122 -89.5986 310° West 145 167 7,000 -97 Level Kansas City Center
Mon 10:26:01 AM 38.2428 -89.6444 310° West 142 163 6,800 -336 Descending Kansas City Center
Mon 10:27:06 AM 38.2692 -89.6850 310° West 147 169 6,300 -480 Descending Kansas City Center
Mon 10:28:06 AM 38.2967 -89.7253 311° West 150 173 5,800 -496 Descending Kansas City Center
Mon 10:29:07 AM 38.3117 -89.7742 291° West 155 178 5,300 -488 Descending Kansas City Center
Mon 10:30:09 AM 38.3222 -89.8261 285° West 155 178 4,800 -480 Descending Kansas City Center
Mon 10:31:12 AM 38.3342 -89.8781 286° West 154 177 4,300 -387 Descending Kansas City Center
Mon 10:32:13 AM 38.3472 -89.9431 284° West 156 180 4,000 -144 Descending Kansas City Center
Mon 10:33:17 AM 38.3583 -89.9950 285° West 155 178 4,000  Level Kansas City Center
Mon 10:34:17 AM 38.3683 -90.0450 284° West 151 174 4,000  Level Kansas City Center
Mon 10:35:18 AM 38.3789 -90.0958 285° West 149 171 4,000  Level Kansas City Center
Mon 10:36:22 AM 38.3892 -90.1469 284° West 149 171 4,000  Level Kansas City Center
Mon 10:37:23 AM 38.3994 -90.1978 284° West 148 170 4,000  Level Kansas City Center
Mon 10:38:26 AM 38.4103 -90.2492 285° West 149 171 4,000  Level Kansas City Center
Mon 10:39:26 AM 38.4222 -90.3100 284° West 149 171 4,000  Level Kansas City Center
Mon 10:40:28 AM 38.4331 -90.3558 287° West 142 163 4,000 -48 Level Kansas City Center
Mon 10:41:31 AM 38.4656 -90.3661 346° North 127 146 3,900 -242 Descending Kansas City Center
Mon 10:42:32 AM 38.4992 -90.3758 347° North 125 144 3,500 -443 Descending Kansas City Center
Mon 10:43:33 AM 38.5281 -90.4000 327° Northwest 135 155 3,000 -432 Descending Kansas City Center
Mon 10:44:37 AM 38.5414 -90.4431 292° West 148 170 2,600 -194 Descending Kansas City Center
Mon 10:45:37 AM 38.5606 -90.4147 49° Northeast 129 148 2,600  Level Kansas City Center
Mon 10:46:38 AM 38.5744 -90.3708 68° East 116 133 2,600  Level Kansas City Center
Mon 10:47:39 AM 38.5856 -90.3356 68° East 111 128 2,600  Level Kansas City Center
Mon 10:48:43 AM 38.5964 -90.3014 68° East 108 124 2,600 -190 Level Kansas City Center
Mon 10:49:45 AM 38.6003 -90.2675 82° East 101 116 2,200 -390 Descending Kansas City Center
Mon 10:50:46 AM 38.5992 -90.2325 92° East 98 113 1,800 -496 Descending Kansas City Center
Mon 10:51:46 AM 38.5922 -90.1986 105° East 98 113 1,200 -634 Descending Kansas City Center
Mon 10:52:49 AM 38.5775 -90.1661 120° Southeast 91 105 500 -667 Descending Kansas City Center

Login

Don't have an account? Register now (free) for customized features, flight alerts, and more!